WetterOnline ( http://www.wetteronline.de )

Wetter aktuell Kellmünz

Aktuelles Wetter: Ulm-Mähringen (592m)

6-stündlich | Neueste Meldungen
Ortszeit Temperatur Wetter
Do, 15.11. 19:00 3.2° C bedeckt
Do, 15.11. 13:00 3.2° C Nebel
Do, 15.11. 7:00 2.3° C Nebel
Do, 15.11. 1:00 2.8° C Nebel
Mi, 14.11. 19:00 4.3° C Nebel
Mi, 14.11. 13:00 4.4° C bedeckt
Mi, 14.11. 7:00 -0.8° C Nebel
Mi, 14.11. 1:00 -0.1° C Nebel
Ortszeit Temperatur Wetter
Do, 15.11. 19:00 3.2° C bedeckt
Do, 15.11. 18:50 3.2° C bedeckt
Do, 15.11. 18:40 3.2° C bedeckt
Do, 15.11. 18:30 3.1° C bedeckt
Do, 15.11. 18:20 3.1° C bedeckt
Do, 15.11. 18:10 3.1° C bedeckt
Do, 15.11. 18:00 3.1° C bedeckt
Do, 15.11. 17:30 3.3° C Nebel
Do, 15.11. 17:00 3.4° C Sprühregen
Do, 15.11. 16:30 3.5° C Nebel
Do, 15.11. 16:00 3.4° C Nebel
Ortszeit Relative Feuchte Sichtweite
Do, 15.11. 19:00 100% 1.6 km
Do, 15.11. 13:00 100% 100 m
Do, 15.11. 7:00 100% 100 m
Do, 15.11. 1:00 100% 100 m
Mi, 14.11. 19:00 100% 100 m
Mi, 14.11. 13:00 100% 1.3 km
Mi, 14.11. 7:00 100% 100 m
Mi, 14.11. 1:00 100% 0.7 km
Ortszeit Relative Feuchte Sichtweite
Do, 15.11. 19:00 100% 1.6 km
Do, 15.11. 18:50 100% -
Do, 15.11. 18:40 100% -
Do, 15.11. 18:30 100% 1.8 km
Do, 15.11. 18:20 100% -
Do, 15.11. 18:10 100% -
Do, 15.11. 18:00 100% 1.0 km
Do, 15.11. 17:30 100% 0.2 km
Do, 15.11. 17:00 100% 0.2 km
Do, 15.11. 16:30 100% 0.2 km
Do, 15.11. 16:00 100% 0.3 km
Ortszeit Niederschlagsmenge Niederschlagsart
Do, 15.11. 19:00 0.1 l/m2 in 12 Std. Sprühregen
Do, 15.11. 13:00 0.1 l/m2 in 6 Std. Sprühregen
Do, 15.11. 7:00 0.1 l/m2 in 12 Std. Sprühregen
Do, 15.11. 1:00 0.1 l/m2 in 6 Std. Sprühregen
Mi, 14.11. 19:00 0.0 l/m2 in 12 Std. -
Mi, 14.11. 13:00 0.0 l/m2 in 6 Std. -
Mi, 14.11. 7:00 0.0 l/m2 in 12 Std. -
Mi, 14.11. 1:00 0.0 l/m2 in 6 Std. -
Ortszeit Niederschlagsmenge Niederschlagsart
Do, 15.11. 19:00 0.1 l/m2 in 1 Std. Sprühregen
Do, 15.11. 18:50 keine Meldung -
Do, 15.11. 18:40 keine Meldung -
Do, 15.11. 18:30 0.1 l/m2 in 1 Std. Schnee
Do, 15.11. 18:20 keine Meldung -
Do, 15.11. 18:10 keine Meldung -
Do, 15.11. 18:00 0.1 l/m2 in 1 Std. Sprühregen
Do, 15.11. 17:30 0.1 l/m2 in 1 Std. -
Do, 15.11. 17:00 0.1 l/m2 in 1 Std. Sprühregen
Do, 15.11. 16:30 0.1 l/m2 in 1 Std. -
Do, 15.11. 16:00 0.1 l/m2 in 1 Std. Sprühregen
Ortszeit Stärke Spitze Richtung
km/h Bft. km/h Grad Sektor
Do, 15.11. 19:00 11 2 18 100° O
Do, 15.11. 13:00 7 2 14 110° O
Do, 15.11. 7:00 6 1 15 180° S
Do, 15.11. 1:00 7 2 14 100° O
Mi, 14.11. 19:00 9 2 17 80° O
Mi, 14.11. 13:00 11 2 14 60° NO
Mi, 14.11. 7:00 0 0 11 - -
Mi, 14.11. 1:00 4 1 18 20° N
Ortszeit Stärke Spitze Richtung
km/h Bft. km/h Grad Sektor
Do, 15.11. 19:00 11 2 18 100° O
Do, 15.11. 18:50 11 2 - 100° O
Do, 15.11. 18:40 11 2 - 100° O
Do, 15.11. 18:30 13 3 17 100° O
Do, 15.11. 18:20 13 3 - 100° O
Do, 15.11. 18:10 13 3 - 100° O
Do, 15.11. 18:00 9 2 17 120° SO
Do, 15.11. 17:30 7 2 14 130° SO
Do, 15.11. 17:00 11 2 18 100° O
Do, 15.11. 16:30 7 2 13 130° SO
Do, 15.11. 16:00 7 2 11 130° SO
Ortszeit Untergrenze Bedeckung Gattung
total tief tief mittel hoch
Do, 15.11. 19:00 30 m 8/8 8/8 - - -
Do, 15.11. 13:00 <30 m 8/8 8/8 - - -
Do, 15.11. 7:00 <30 m 8/8 8/8 - - -
Do, 15.11. 1:00 <30 m 8/8 8/8 - - -
Mi, 14.11. 19:00 <30 m 8/8 8/8 - - -
Mi, 14.11. 13:00 30 m 8/8 8/8 - - -
Mi, 14.11. 7:00 <30 m 8/8 8/8 - - -
Mi, 14.11. 1:00 <30 m 4/8 4/8 - - -
Ortszeit Bedeckungsgrad in Achtel und Wolkenuntergrenze
Do, 15.11. 19:00 8(30m)
Do, 15.11. 18:50 8(30m)
Do, 15.11. 18:40 8(30m)
Do, 15.11. 18:30 8(30m)
Do, 15.11. 18:20 8(30m)
Do, 15.11. 18:10 8(30m)
Do, 15.11. 18:00 8(<30m)
Do, 15.11. 17:30 8(<30m)
Do, 15.11. 17:00 8(<30m)
Do, 15.11. 16:30 8(<30m)
Do, 15.11. 16:00 8(<30m)
Ortszeit Luftdruck NN (hPa) Tendenz (hPa in 3 Std.)
Do, 15.11. 19:00 1029 + 0,5
Do, 15.11. 13:00 1029 - 0,3
Do, 15.11. 7:00 1029 0,0
Do, 15.11. 1:00 1030 - 0,5
Mi, 14.11. 19:00 1030 - 0,2
Mi, 14.11. 13:00 1031 - 1,0
Mi, 14.11. 7:00 1034 - 0,3
Mi, 14.11. 1:00 1035 - 0,3
Ortszeit Luftdruck NN (hPa) Tendenz (hPa in 3 Std.)
Do, 15.11. 19:00 1029 + 0,5
Do, 15.11. 18:50 1029 keine Meldung
Do, 15.11. 18:40 1029 keine Meldung
Do, 15.11. 18:30 1029 + 0,2
Do, 15.11. 18:20 1029 keine Meldung
Do, 15.11. 18:10 1029 keine Meldung
Do, 15.11. 18:00 1029 + 0,1
Do, 15.11. 17:30 1028 0,0
Do, 15.11. 17:00 1028 - 0,1
Do, 15.11. 16:30 1028 - 0,5
Do, 15.11. 16:00 1028 - 0,5
Ortszeit Schneehöhe (cm)
Do, 15.11. 19:00 0
Do, 15.11. 13:00 0
Do, 15.11. 7:00 0
Do, 15.11. 1:00 0
Mi, 14.11. 19:00 0
Mi, 14.11. 13:00 0
Mi, 14.11. 7:00 0
Mi, 14.11. 1:00 0
Ortszeit Schneehöhe (cm)
Do, 15.11. 19:00 0
Do, 15.11. 18:50 0
Do, 15.11. 18:40 0
Do, 15.11. 18:30 0
Do, 15.11. 18:20 0
Do, 15.11. 18:10 0
Do, 15.11. 18:00 0
Do, 15.11. 17:30 0
Do, 15.11. 17:00 0
Do, 15.11. 16:30 0
Do, 15.11. 16:00 0
Link zu dieser Seite / Seite empfehlen

Das Wetter in ...